»·PEaware :: N732KA KDAL-KFSM

N732KA :: KDAL-KFSM

FLIGHT INFORMATION

Flight Status: Arrived
Operator: Privately registered:
United States
More flights under this callsign
Pilot: Anonymous 14085 (14085)
Aircraft: BOEING 737-300
(B733)
More flights by this aircraft type
Origin: KDAL Dallas Love
United States
Destination: KFSM Ft Smith Regl
United States
More flights between these airports :: More routes between these airports
Route: TEX8 OKM
File this flight plan on PilotEdge
Remarks: RMK / SIMBRIEF
Altitude:
(Current/Filed)
31,000ft
Speed:
(Current/Filed)
441kts
Departed: 07-Aug-20 09:23 AM
Arrived: 07-Aug-20 10:18 AM
Distance/Time
Traveled:
194nm/0:55
Distance/Time
To Go:
Arrived

Flight Plot

Page will automatically refresh every two minutes.

Flight plan parsing failed; only flown route is shown


Map Options




Map Legend


Flown Route
Filed Route
Departure Airport
Arrival Airport
Navaid (VOR, NDB)
Fix

Horizontal Profiles

Position Reports

Time Latitude Longitude Heading Altitude Ground
Speed
07-Aug-20 08:47 32.853746 -96.849028 138 491ft 0kts
07-Aug-20 08:48 32.853746 -96.849028 138 491ft 0kts
07-Aug-20 08:49 32.853746 -96.849028 138 491ft 0kts
07-Aug-20 08:50 32.853746 -96.849028 138 491ft 0kts
07-Aug-20 08:51 32.853746 -96.849028 138 491ft 0kts
07-Aug-20 08:52 32.853746 -96.849028 138 491ft 0kts
07-Aug-20 08:53 32.853746 -96.849028 138 491ft 0kts
07-Aug-20 08:54 32.853746 -96.849028 138 491ft 0kts
07-Aug-20 08:55 32.853746 -96.849028 138 491ft 0kts
07-Aug-20 08:56 32.853746 -96.849028 138 491ft 0kts
07-Aug-20 08:57 32.853746 -96.849028 138 491ft 0kts
07-Aug-20 08:58 32.853746 -96.849028 138 491ft 0kts
07-Aug-20 08:59 32.853746 -96.849028 138 491ft 0kts
07-Aug-20 09:00 32.853746 -96.849028 138 491ft 0kts
07-Aug-20 09:01 32.853746 -96.849028 138 491ft 0kts
07-Aug-20 09:02 32.853746 -96.849028 138 491ft 0kts
07-Aug-20 09:03 32.853746 -96.849028 138 491ft 0kts
07-Aug-20 09:04 32.853746 -96.849028 138 491ft 0kts
07-Aug-20 09:05 32.853746 -96.849028 138 491ft 0kts
07-Aug-20 09:06 32.853746 -96.849028 138 491ft 0kts
07-Aug-20 09:07 32.853746 -96.849028 138 491ft 0kts
07-Aug-20 09:08 32.853746 -96.849028 138 491ft 0kts
07-Aug-20 09:09 32.853746 -96.849028 138 491ft 0kts
07-Aug-20 09:10 32.853746 -96.849028 138 491ft 0kts
07-Aug-20 09:11 32.853746 -96.849028 138 491ft 0kts
07-Aug-20 09:12 32.853746 -96.849028 138 491ft 0kts
07-Aug-20 09:14 32.853746 -96.849028 138 491ft 0kts
07-Aug-20 09:15 32.853746 -96.849028 138 491ft 0kts
07-Aug-20 09:16 32.853746 -96.849027 138 491ft 0kts
07-Aug-20 09:17 32.853746 -96.849027 138 491ft 0kts
07-Aug-20 09:18 32.853533 -96.849285 270 491ft 3kts
07-Aug-20 09:19 32.853581 -96.850629 293 491ft 6kts
07-Aug-20 09:20 32.855758 -96.853092 313 491ft 12kts
07-Aug-20 09:21 32.858096 -96.855097 316 491ft 10kts
07-Aug-20 09:22 32.857265 -96.856615 197 491ft 2kts
07-Aug-20 09:23 32.846230 -96.843987 137 744ft 178kts
07-Aug-20 09:24 32.805256 -96.812206 184 4834ft 207kts
07-Aug-20 09:25 32.781495 -96.874291 296 8439ft 266kts
07-Aug-20 09:26 32.844905 -96.931352 315 11382ft 335kts
07-Aug-20 09:27 32.876793 -97.032129 271 15795ft 335kts
07-Aug-20 09:28 32.884630 -97.147103 284 19426ft 347kts
07-Aug-20 09:29 32.966496 -97.192933 26 21415ft 380kts
07-Aug-20 09:30 33.034340 -97.122487 19 23331ft 401kts
07-Aug-20 09:31 33.141573 -97.081998 16 26035ft 414kts
07-Aug-20 09:32 33.251939 -97.039346 16 28607ft 424kts
07-Aug-20 09:32 33.345528 -97.002982 16 30830ft 424kts
07-Aug-20 09:34 33.472049 -96.953614 16 31143ft 396kts
07-Aug-20 09:34 33.559003 -96.919538 16 31139ft 397kts
07-Aug-20 09:35 33.663865 -96.878488 16 31141ft 397kts
07-Aug-20 09:37 33.786391 -96.830367 16 31143ft 396kts
07-Aug-20 09:37 33.875904 -96.795121 16 31130ft 416kts
07-Aug-20 09:38 33.985988 -96.751659 16 31146ft 417kts
07-Aug-20 09:39 34.096126 -96.708067 16 31146ft 417kts
07-Aug-20 09:40 34.206170 -96.664492 16 31129ft 417kts
07-Aug-20 09:41 34.315768 -96.620780 18 31122ft 417kts
07-Aug-20 09:42 34.421746 -96.563883 22 31131ft 418kts
07-Aug-20 09:43 34.527900 -96.506550 22 31138ft 418kts
07-Aug-20 09:44 34.633517 -96.449403 22 31139ft 417kts
07-Aug-20 09:45 34.739578 -96.391880 22 31142ft 417kts
07-Aug-20 09:46 34.845458 -96.334187 23 31129ft 418kts
07-Aug-20 09:47 34.951294 -96.276228 22 31143ft 419kts
07-Aug-20 09:48 35.057764 -96.217928 22 31165ft 422kts
07-Aug-20 09:49 35.164874 -96.159217 22 31149ft 422kts
07-Aug-20 09:50 35.271749 -96.100384 22 31148ft 422kts
07-Aug-20 09:51 35.378477 -96.041435 22 31157ft 422kts
07-Aug-20 09:52 35.485259 -95.982287 22 31142ft 422kts
07-Aug-20 09:53 35.591985 -95.922993 22 31138ft 422kts
07-Aug-20 09:54 35.691672 -95.851278 55 29117ft 431kts
07-Aug-20 09:55 35.682399 -95.715776 106 27127ft 382kts
07-Aug-20 09:56 35.660497 -95.594058 117 25688ft 381kts
07-Aug-20 09:57 35.610160 -95.481269 116 23478ft 370kts
07-Aug-20 09:58 35.570814 -95.367397 96 21405ft 362kts
07-Aug-20 09:59 35.572007 -95.245003 93 19351ft 348kts
07-Aug-20 10:00 35.567471 -95.130574 92 17502ft 310kts
07-Aug-20 10:01 35.563862 -95.031320 93 15913ft 272kts
07-Aug-20 10:02 35.560707 -94.945852 92 14100ft 255kts
07-Aug-20 10:03 35.557472 -94.859534 92 11940ft 250kts
07-Aug-20 10:04 35.554271 -94.775758 90 9974ft 240kts
07-Aug-20 10:05 35.551572 -94.706254 90 8367ft 231kts
07-Aug-20 10:06 35.548543 -94.629360 90 6546ft 221kts
07-Aug-20 10:07 35.528850 -94.564522 160 4698ft 222kts
07-Aug-20 10:08 35.480436 -94.597108 220 3487ft 196kts
07-Aug-20 10:09 35.429225 -94.613495 189 3509ft 188kts
07-Aug-20 10:10 35.378874 -94.614387 170 3524ft 177kts
07-Aug-20 10:11 35.330340 -94.606837 170 3488ft 176kts
07-Aug-20 10:12 35.309975 -94.563862 78 2558ft 160kts
07-Aug-20 10:13 35.317359 -94.509446 79 2100ft 161kts
07-Aug-20 10:14 35.323883 -94.460603 84 1814ft 128kts
07-Aug-20 10:15 35.328806 -94.418419 83 1011ft 123kts
07-Aug-20 10:16 35.334144 -94.377367 83 482ft 124kts
07-Aug-20 10:17 35.336778 -94.362571 339 476ft 9kts
07-Aug-20 10:18 35.336515 -94.367218 261 476ft 20kts
07-Aug-20 10:19 35.336232 -94.373488 319 476ft 9kts
07-Aug-20 10:20 35.336637 -94.373087 88 476ft 0kts
07-Aug-20 10:21 35.336637 -94.373087 88 476ft 0kts
07-Aug-20 10:22 35.336637 -94.373087 88 476ft 0kts
07-Aug-20 10:23 35.336637 -94.373087 88 476ft 0kts

Navigation Log

Ident Type
Flight plan parsing failed, navigation log unavailable